Aidablu — IBWX — position and weather

sailwx.info

Track history (hours):
 
Tides and Currents Weather Stations Pressure Air Temp Water Temp Dewpoint Dewpoint Depression Visibility Wind Speed Wind Dir Waves Ship Positions

Aidablu

Last reported at 2015-Aug-04 04:25 UTC. Time now 2015-Aug-04 09:39 UTC.
Position N 39°35' E 004°25'.

Length 252 m; draft 7.3 m.

Type: Ship. MMSI: 247282500.

Date/timePositionNaut miles runAvg speedWind from/ knotsBaromVisibWave heightAir tempDewpointWater temp
2015-Aug-04 04:25N 39°35' E 004°25'1112.3
2015-Aug-04 03:33N 39°30' E 004°12'2812.7
2015-Aug-04 01:22N 39°18' E 003°40'1012.5
2015-Aug-04 00:33N 39°13' E 003°28'1212.3
2015-Aug-03 23:33N 39°13' E 003°13'1212.2
2015-Aug-03 22:33N 39°15' E 002°57'1211.8
2015-Aug-03 21:33N 39°21' E 002°44'1212.1
2015-Aug-03 20:33N 39°33' E 002°39'1 1.0
2015-Aug-03 19:31N 39°33' E 002°38'0 0.0
2015-Aug-03 18:33N 39°33' E 002°38'0 0.0
2015-Aug-03 17:33N 39°33' E 002°38'0 0.0
2015-Aug-03 16:32N 39°33' E 002°38'0 0.0
2015-Aug-03 15:32N 39°33' E 002°38'0 0.0
2015-Aug-03 14:32N 39°33' E 002°38'0 0.0
2015-Aug-03 13:31N 39°33' E 002°38'0 0.0
2015-Aug-03 12:31N 39°33' E 002°38'0 0.0
2015-Aug-03 11:33N 39°33' E 002°38'0 0.0
2015-Aug-03 10:33N 39°33' E 002°38'0 0.0
2015-Aug-03 09:32N 39°33' E 002°38'0 0.0
2015-Aug-03 08:32N 39°33' E 002°38'0 0.0
2015-Aug-03 07:32N 39°33' E 002°38'0 0.0
2015-Aug-03 06:31N 39°33' E 002°38'0 0.0
2015-Aug-03 05:31N 39°33' E 002°38'0 0.0
2015-Aug-03 04:33N 39°33' E 002°38'0 0.0
2015-Aug-03 03:33N 39°33' E 002°38'0 0.2
2015-Aug-03 02:34N 39°33' E 002°38'8 8.3
2015-Aug-03 01:33N 39°26' E 002°32'1312.8
2015-Aug-03 00:33N 39°32' E 002°17'1212.0
2015-Aug-02 23:33N 39°44' E 002°14'1312.7
2015-Aug-02 22:33N 39°56' E 002°13'1313.0
2015-Aug-02 21:33N 40°09' E 002°13'1313.2
2015-Aug-02 20:33N 40°22' E 002°13'1313.3
2015-Aug-02 19:33N 40°36' E 002°12'1413.6
2015-Aug-02 18:33N 40°49' E 002°12'1313.2
2015-Aug-02 17:34N 41°02' E 002°11'19 1.5
2015-Aug-02 05:22N 41°21' E 002°11'169 7.1
2015-Aug-01 05:33N 41°36' E 005°55'39 9.8
2015-Aug-01 01:33N 41°40' E 006°47'1312.2
2015-Aug-01 00:31N 41°42' E 007°04'1312.2
2015-Jul-31 23:30N 41°43' E 007°20'1212.4
2015-Jul-31 22:33N 41°44' E 007°36'1812.7
2015-Jul-31 21:07N 41°46' E 008°00'712.5
2015-Jul-31 20:33N 41°47' E 008°10'1512.5
2015-Jul-31 19:20N 41°49' E 008°30'24 1.5
2015-Jul-31 03:26N 42°12' E 008°24'1112.1
2015-Jul-31 02:30N 42°24' E 008°26'1111.7
2015-Jul-31 01:32N 42°34' E 008°32'1111.2
2015-Jul-31 00:33N 42°43' E 008°40'1211.7
2015-Jul-30 23:32N 42°51' E 008°52'1211.8
2015-Jul-30 22:33N 42°58' E 009°04'1212.1
2015-Jul-30 21:33N 43°06' E 009°18'1111.4
2015-Jul-30 20:33N 43°11' E 009°32'1211.5
2015-Jul-30 19:33N 43°15' E 009°46'1211.9
2015-Jul-30 18:33N 43°21' E 010°01'1212.3
2015-Jul-30 17:33N 43°30' E 010°12'5 5.4
2015-Jul-30 16:33N 43°33' E 010°18'0 0.0
2015-Jul-30 15:33N 43°33' E 010°18'0 0.0
2015-Jul-30 14:32N 43°33' E 010°18'0 0.0
2015-Jul-30 13:32N 43°33' E 010°18'0 0.0
2015-Jul-30 12:31N 43°33' E 010°18'0 0.0
2015-Jul-30 11:31N 43°33' E 010°18'0 0.0
2015-Jul-30 10:33N 43°33' E 010°18'0 0.0
2015-Jul-30 09:30N 43°33' E 010°18'0 0.0
2015-Jul-30 08:33N 43°33' E 010°18'0 0.0
2015-Jul-30 07:32N 43°33' E 010°18'0 0.0
2015-Jul-30 06:32N 43°33' E 010°18'0 0.0
2015-Jul-30 05:33N 43°33' E 010°18'5 5.0
2015-Jul-30 04:33N 43°29' E 010°13'1313.2
2015-Jul-30 03:33N 43°16' E 010°10'1414.3
2015-Jul-30 02:33N 43°02' E 010°05'1413.6
2015-Jul-30 01:33N 42°49' E 010°02'2613.1
2015-Jul-29 23:33N 42°30' E 010°26'1414.2
2015-Jul-29 22:33N 42°21' E 010°41'1414.5
2015-Jul-29 21:33N 42°12' E 010°56'3114.2
2015-Jul-29 19:21N 42°06' E 011°37'116 5.1
2015-Jul-28 20:25N 40°49' E 013°33'1213.5
2015-Jul-28 19:33N 40°42' E 013°46'1312.7
2015-Jul-28 18:33N 40°39' E 014°02'1413.8
2015-Jul-28 17:33N 40°48' E 014°16'3 0.2
2015-Jul-28 05:25N 40°51' E 014°16'5 5.8
2015-Jul-28 04:33N 40°45' E 014°16'1414.3
2015-Jul-28 03:33N 40°33' E 014°08'1514.3
2015-Jul-28 02:32N 40°18' E 014°03'9214.7
2015-Jul-27 20:16N 38°48' E 013°37'1014.4
2015-Jul-27 19:33N 38°38' E 013°34'1414.2
2015-Jul-27 18:33N 38°24' E 013°30'1414.0
2015-Jul-27 17:33N 38°11' E 013°27'5 4.6
2015-Jul-27 16:32N 38°08' E 013°22'0 0.0
2015-Jul-27 15:31N 38°08' E 013°22'0 0.0
2015-Jul-27 14:31N 38°08' E 013°22'0 0.0
2015-Jul-27 13:34N 38°08' E 013°22'0 0.0
2015-Jul-27 12:33N 38°08' E 013°22'0 0.0
2015-Jul-27 11:33N 38°08' E 013°22'0 0.0
2015-Jul-27 10:23N 38°08' E 013°22'0 0.0
2015-Jul-27 09:29N 38°08' E 013°22'0 0.0
2015-Jul-27 08:28N 38°08' E 013°22'0 0.0
2015-Jul-27 07:29N 38°08' E 013°22'3 3.7
2015-Jul-27 06:34N 38°11' E 013°24'1413.6
2015-Jul-27 05:33N 38°22' E 013°15'293 8.1
2015-Jul-25 17:33N 41°04' E 007°58'1313.4
2015-Jul-25 16:33N 40°58' E 007°42'  
Track history (hours):
 
Tides and Currents Weather Stations Pressure Air Temp Water Temp Dewpoint Dewpoint Depression Visibility Wind Speed Wind Dir Waves Ship Positions

Aidablu

Last reported at 2015-Aug-04 04:25 UTC. Time now 2015-Aug-04 09:39 UTC.
Position N 39°35' E 004°25'.

Length 252 m; draft 7.3 m.

Type: Ship. MMSI: 247282500.

Date/timePositionNaut miles runAvg speedWind from/ knotsBaromVisibWave heightAir tempDewpointWater temp
2015-Aug-04 04:25N 39°35' E 004°25'1112.3
2015-Aug-04 03:33N 39°30' E 004°12'2812.7
2015-Aug-04 01:22N 39°18' E 003°40'1012.5
2015-Aug-04 00:33N 39°13' E 003°28'1212.3
2015-Aug-03 23:33N 39°13' E 003°13'1212.2
2015-Aug-03 22:33N 39°15' E 002°57'1211.8
2015-Aug-03 21:33N 39°21' E 002°44'1212.1
2015-Aug-03 20:33N 39°33' E 002°39'1 1.0
2015-Aug-03 19:31N 39°33' E 002°38'0 0.0
2015-Aug-03 18:33N 39°33' E 002°38'0 0.0
2015-Aug-03 17:33N 39°33' E 002°38'0 0.0
2015-Aug-03 16:32N 39°33' E 002°38'0 0.0
2015-Aug-03 15:32N 39°33' E 002°38'0 0.0
2015-Aug-03 14:32N 39°33' E 002°38'0 0.0
2015-Aug-03 13:31N 39°33' E 002°38'0 0.0
2015-Aug-03 12:31N 39°33' E 002°38'0 0.0
2015-Aug-03 11:33N 39°33' E 002°38'0 0.0
2015-Aug-03 10:33N 39°33' E 002°38'0 0.0
2015-Aug-03 09:32N 39°33' E 002°38'0 0.0
2015-Aug-03 08:32N 39°33' E 002°38'0 0.0
2015-Aug-03 07:32N 39°33' E 002°38'0 0.0
2015-Aug-03 06:31N 39°33' E 002°38'0 0.0
2015-Aug-03 05:31N 39°33' E 002°38'0 0.0
2015-Aug-03 04:33N 39°33' E 002°38'0 0.0
2015-Aug-03 03:33N 39°33' E 002°38'0 0.2
2015-Aug-03 02:34N 39°33' E 002°38'8 8.3
2015-Aug-03 01:33N 39°26' E 002°32'1312.8
2015-Aug-03 00:33N 39°32' E 002°17'1212.0
2015-Aug-02 23:33N 39°44' E 002°14'1312.7
2015-Aug-02 22:33N 39°56' E 002°13'1313.0
2015-Aug-02 21:33N 40°09' E 002°13'1313.2
2015-Aug-02 20:33N 40°22' E 002°13'1313.3
2015-Aug-02 19:33N 40°36' E 002°12'1413.6
2015-Aug-02 18:33N 40°49' E 002°12'1313.2
2015-Aug-02 17:34N 41°02' E 002°11'19 1.5
2015-Aug-02 05:22N 41°21' E 002°11'169 7.1
2015-Aug-01 05:33N 41°36' E 005°55'39 9.8
2015-Aug-01 01:33N 41°40' E 006°47'1312.2
2015-Aug-01 00:31N 41°42' E 007°04'1312.2
2015-Jul-31 23:30N 41°43' E 007°20'1212.4
2015-Jul-31 22:33N 41°44' E 007°36'1812.7
2015-Jul-31 21:07N 41°46' E 008°00'712.5
2015-Jul-31 20:33N 41°47' E 008°10'1512.5
2015-Jul-31 19:20N 41°49' E 008°30'24 1.5
2015-Jul-31 03:26N 42°12' E 008°24'1112.1
2015-Jul-31 02:30N 42°24' E 008°26'1111.7
2015-Jul-31 01:32N 42°34' E 008°32'1111.2
2015-Jul-31 00:33N 42°43' E 008°40'1211.7
2015-Jul-30 23:32N 42°51' E 008°52'1211.8
2015-Jul-30 22:33N 42°58' E 009°04'1212.1
2015-Jul-30 21:33N 43°06' E 009°18'1111.4
2015-Jul-30 20:33N 43°11' E 009°32'1211.5
2015-Jul-30 19:33N 43°15' E 009°46'1211.9
2015-Jul-30 18:33N 43°21' E 010°01'1212.3
2015-Jul-30 17:33N 43°30' E 010°12'5 5.4
2015-Jul-30 16:33N 43°33' E 010°18'0 0.0
2015-Jul-30 15:33N 43°33' E 010°18'0 0.0
2015-Jul-30 14:32N 43°33' E 010°18'0 0.0
2015-Jul-30 13:32N 43°33' E 010°18'0 0.0
2015-Jul-30 12:31N 43°33' E 010°18'0 0.0
2015-Jul-30 11:31N 43°33' E 010°18'0 0.0
2015-Jul-30 10:33N 43°33' E 010°18'0 0.0
2015-Jul-30 09:30N 43°33' E 010°18'0 0.0
2015-Jul-30 08:33N 43°33' E 010°18'0 0.0
2015-Jul-30 07:32N 43°33' E 010°18'0 0.0
2015-Jul-30 06:32N 43°33' E 010°18'0 0.0
2015-Jul-30 05:33N 43°33' E 010°18'5 5.0
2015-Jul-30 04:33N 43°29' E 010°13'1313.2
2015-Jul-30 03:33N 43°16' E 010°10'1414.3
2015-Jul-30 02:33N 43°02' E 010°05'1413.6
2015-Jul-30 01:33N 42°49' E 010°02'2613.1
2015-Jul-29 23:33N 42°30' E 010°26'1414.2
2015-Jul-29 22:33N 42°21' E 010°41'1414.5
2015-Jul-29 21:33N 42°12' E 010°56'3114.2
2015-Jul-29 19:21N 42°06' E 011°37'116 5.1
2015-Jul-28 20:25N 40°49' E 013°33'1213.5
2015-Jul-28 19:33N 40°42' E 013°46'1312.7
2015-Jul-28 18:33N 40°39' E 014°02'1413.8
2015-Jul-28 17:33N 40°48' E 014°16'3 0.2
2015-Jul-28 05:25N 40°51' E 014°16'5 5.8
2015-Jul-28 04:33N 40°45' E 014°16'1414.3
2015-Jul-28 03:33N 40°33' E 014°08'1514.3
2015-Jul-28 02:32N 40°18' E 014°03'9214.7
2015-Jul-27 20:16N 38°48' E 013°37'1014.4
2015-Jul-27 19:33N 38°38' E 013°34'1414.2
2015-Jul-27 18:33N 38°24' E 013°30'1414.0
2015-Jul-27 17:33N 38°11' E 013°27'5 4.6
2015-Jul-27 16:32N 38°08' E 013°22'0 0.0
2015-Jul-27 15:31N 38°08' E 013°22'0 0.0
2015-Jul-27 14:31N 38°08' E 013°22'0 0.0
2015-Jul-27 13:34N 38°08' E 013°22'0 0.0
2015-Jul-27 12:33N 38°08' E 013°22'0 0.0
2015-Jul-27 11:33N 38°08' E 013°22'0 0.0
2015-Jul-27 10:23N 38°08' E 013°22'0 0.0
2015-Jul-27 09:29N 38°08' E 013°22'0 0.0
2015-Jul-27 08:28N 38°08' E 013°22'0 0.0
2015-Jul-27 07:29N 38°08' E 013°22'3 3.7
2015-Jul-27 06:34N 38°11' E 013°24'1413.6
2015-Jul-27 05:33N 38°22' E 013°15'293 8.1
2015-Jul-25 17:33N 41°04' E 007°58'1313.4
2015-Jul-25 16:33N 40°58' E 007°42'  

Dump ship's entire track history